createdAt,value
2017-10-17T00:00:02.153Z,10.53
2017-10-17T00:02:30.996Z,12.00
2017-10-17T00:04:59.078Z,11.90
2017-10-17T00:07:27.169Z,12.33
2017-10-17T00:09:56.076Z,11.67
2017-10-17T00:12:24.183Z,11.27
2017-10-17T00:14:52.342Z,11.77
2017-10-17T00:17:20.476Z,12.00
2017-10-17T00:19:49.343Z,12.27
2017-10-17T00:22:17.424Z,12.00
2017-10-17T00:24:49.116Z,10.90
2017-10-17T00:27:17.927Z,11.33
2017-10-17T00:29:46.018Z,11.27
2017-10-17T00:32:14.114Z,12.27
2017-10-17T00:34:43.107Z,11.47
2017-10-17T00:37:11.955Z,12.13
2017-10-17T00:39:40.058Z,12.73
2017-10-17T00:42:08.118Z,12.30
2017-10-17T00:44:36.241Z,12.07
2017-10-17T00:47:04.323Z,12.53
2017-10-17T00:49:32.418Z,12.30
2017-10-17T00:52:00.502Z,11.27
2017-10-17T00:54:28.640Z,11.33
2017-10-17T00:56:56.695Z,13.50
2017-10-17T00:59:33.614Z,12.33
2017-10-17T01:02:01.707Z,11.97
2017-10-17T01:04:29.812Z,13.07
2017-10-17T01:06:58.631Z,12.07
2017-10-17T01:09:26.728Z,11.60
2017-10-17T01:11:55.036Z,12.77
2017-10-17T01:14:23.083Z,11.70
2017-10-17T01:16:51.959Z,11.53
2017-10-17T01:19:20.021Z,11.00
2017-10-17T01:21:48.113Z,12.27
2017-10-17T01:24:16.183Z,12.97
2017-10-17T01:26:44.362Z,13.20
2017-10-17T01:29:15.362Z,12.23
2017-10-17T01:31:43.467Z,12.47
2017-10-17T01:34:12.314Z,12.40
2017-10-17T01:36:41.233Z,13.07
2017-10-17T01:39:09.308Z,12.93
2017-10-17T01:41:37.350Z,12.63
2017-10-17T01:44:17.201Z,11.87
2017-10-17T01:46:47.195Z,12.60
2017-10-17T01:49:27.856Z,13.87
2017-10-17T02:05:20.336Z,12.63
2017-10-17T02:07:48.409Z,13.23
2017-10-17T02:10:19.315Z,13.93
2017-10-17T02:12:47.414Z,14.43
2017-10-17T02:15:15.511Z,15.63
2017-10-17T02:17:46.133Z,14.27
2017-10-17T02:20:14.220Z,14.50
2017-10-17T02:22:43.930Z,15.47
2017-10-17T02:38:39.900Z,14.53
2017-10-17T02:41:07.995Z,16.10
2017-10-17T02:43:57.443Z,14.77
2017-10-17T02:46:25.514Z,16.60
2017-10-17T02:49:08.243Z,15.97
2017-10-17T02:51:36.685Z,15.40
2017-10-17T02:54:04.763Z,16.03
2017-10-17T02:56:32.898Z,15.70
2017-10-17T02:59:00.956Z,15.50
2017-10-17T03:01:34.217Z,14.80
2017-10-17T03:04:02.311Z,16.23
2017-10-17T03:06:31.163Z,15.90
2017-10-17T03:08:59.267Z,13.67
2017-10-17T03:11:28.104Z,13.30
2017-10-17T03:13:57.087Z,13.70
2017-10-17T03:16:25.277Z,13.63
2017-10-17T03:18:53.347Z,14.23
2017-10-17T03:21:22.384Z,13.80
2017-10-17T03:23:51.933Z,13.73
2017-10-17T03:26:20.006Z,13.00
2017-10-17T03:28:48.095Z,13.83
2017-10-17T03:31:16.188Z,13.13
2017-10-17T03:33:44.259Z,13.67
2017-10-17T03:36:45.510Z,14.23
2017-10-17T03:39:14.352Z,13.60
2017-10-17T03:41:43.152Z,14.00
2017-10-17T03:44:25.695Z,13.57
2017-10-17T03:46:53.855Z,13.00
2017-10-17T04:02:49.055Z,12.60
2017-10-17T04:05:19.784Z,13.33
2017-10-17T04:07:50.792Z,13.70
2017-10-17T04:10:22.525Z,14.37
2017-10-17T04:12:56.223Z,14.70
2017-10-17T04:15:24.287Z,14.43
2017-10-17T04:17:56.215Z,14.10
2017-10-17T04:20:30.827Z,13.70
2017-10-17T04:23:02.684Z,13.87
2017-10-17T04:25:42.438Z,14.30
2017-10-17T04:28:14.311Z,13.90
2017-10-17T04:30:46.117Z,14.67
2017-10-17T04:33:22.075Z,13.70
2017-10-17T04:35:51.119Z,13.50
2017-10-17T04:38:19.173Z,14.27
2017-10-17T04:40:49.210Z,13.80
2017-10-17T04:43:28.983Z,14.10
2017-10-17T04:46:04.648Z,15.10
2017-10-17T04:48:37.972Z,15.00
2017-10-17T04:51:15.985Z,15.70
2017-10-17T05:07:15.306Z,14.30
2017-10-17T05:09:55.168Z,15.00
2017-10-17T05:12:24.852Z,15.33
2017-10-17T05:14:53.047Z,16.37
2017-10-17T05:30:52.899Z,15.13
2017-10-17T05:33:30.631Z,15.30
2017-10-17T05:35:58.700Z,14.03
2017-10-17T05:38:27.551Z,16.63
2017-10-17T05:40:55.651Z,15.70
2017-10-17T05:43:26.148Z,16.53
2017-10-17T05:45:55.152Z,16.33
2017-10-17T05:48:23.253Z,16.33
2017-10-17T05:50:54.030Z,15.80
2017-10-17T05:53:22.139Z,14.97
2017-10-17T05:55:50.223Z,15.47
2017-10-17T05:58:18.280Z,16.83
2017-10-17T06:00:46.351Z,16.50
2017-10-17T06:03:14.572Z,16.17
2017-10-17T06:05:42.630Z,17.30
2017-10-17T06:08:10.719Z,14.97
2017-10-17T06:10:38.855Z,15.33
2017-10-17T06:13:07.714Z,16.47
2017-10-17T06:15:35.797Z,16.43
2017-10-17T06:18:03.937Z,15.63
2017-10-17T06:20:32.039Z,16.17
2017-10-17T06:23:00.983Z,16.87
2017-10-17T06:25:29.086Z,17.50
2017-10-17T06:27:57.980Z,15.70
2017-10-17T06:30:26.161Z,17.63
2017-10-17T06:32:55.778Z,16.37
2017-10-17T06:35:23.880Z,16.53
2017-10-17T06:37:51.952Z,18.47
2017-10-17T06:40:20.096Z,17.33
2017-10-17T06:42:48.234Z,17.47
2017-10-17T06:45:16.295Z,17.10
2017-10-17T06:47:45.262Z,16.77
2017-10-17T06:50:14.084Z,17.03
2017-10-17T06:52:42.174Z,17.20
2017-10-17T06:55:10.286Z,16.87
2017-10-17T06:57:39.212Z,16.87
2017-10-17T07:00:07.313Z,16.30
2017-10-17T07:02:35.403Z,16.93
2017-10-17T07:05:04.239Z,15.93
2017-10-17T07:07:32.407Z,17.83
2017-10-17T07:10:00.684Z,16.63
2017-10-17T07:12:28.769Z,18.07
2017-10-17T07:14:56.846Z,19.07
2017-10-17T07:17:24.922Z,17.37
2017-10-17T07:19:53.047Z,18.43
2017-10-17T07:22:21.867Z,17.00
2017-10-17T07:24:49.999Z,17.90
2017-10-17T07:27:18.042Z,18.60
2017-10-17T07:29:46.135Z,18.23
2017-10-17T07:32:14.608Z,19.50
2017-10-17T07:34:43.468Z,17.67
2017-10-17T07:37:11.579Z,20.57
2017-10-17T07:39:39.676Z,21.23
2017-10-17T07:42:07.754Z,18.47
2017-10-17T07:44:35.836Z,19.80
2017-10-17T07:47:03.916Z,18.57
2017-10-17T07:49:32.786Z,18.30
2017-10-17T07:52:00.867Z,20.93
2017-10-17T07:54:28.968Z,19.77
2017-10-17T07:56:57.824Z,19.70
2017-10-17T07:59:25.885Z,19.30
2017-10-17T08:01:53.984Z,19.90
2017-10-17T08:04:22.819Z,18.03
2017-10-17T08:06:50.941Z,20.73
2017-10-17T08:09:20.079Z,20.13
2017-10-17T08:11:48.187Z,20.03
2017-10-17T08:14:16.255Z,19.03
2017-10-17T08:16:44.332Z,16.73
2017-10-17T08:19:12.414Z,19.60
2017-10-17T08:21:40.487Z,17.60
2017-10-17T08:24:08.569Z,17.47
2017-10-17T08:26:36.656Z,19.47
2017-10-17T08:29:05.497Z,18.73
2017-10-17T08:31:33.579Z,19.40
2017-10-17T08:34:01.644Z,18.63
2017-10-17T08:36:29.723Z,20.50
2017-10-17T08:38:57.819Z,22.07
2017-10-17T08:41:25.889Z,20.13
2017-10-17T08:43:53.952Z,19.03
2017-10-17T08:46:22.066Z,19.03
2017-10-17T08:48:50.908Z,22.20
2017-10-17T08:51:19.000Z,21.63
2017-10-17T08:53:47.074Z,22.03
2017-10-17T08:56:15.973Z,23.07
2017-10-17T08:58:44.837Z,22.53
2017-10-17T09:01:12.921Z,25.13
2017-10-17T09:03:40.998Z,40.50
2017-10-17T09:06:09.101Z,25.33
2017-10-17T09:08:37.198Z,26.13
2017-10-17T09:11:05.269Z,27.07
2017-10-17T09:13:33.365Z,28.03
2017-10-17T09:16:01.436Z,27.13
2017-10-17T09:18:29.520Z,25.70
2017-10-17T09:20:57.619Z,26.43
2017-10-17T09:23:26.467Z,24.20
2017-10-17T09:25:54.556Z,26.00
2017-10-17T09:28:22.629Z,25.20
2017-10-17T09:30:51.481Z,24.93
2017-10-17T09:33:19.611Z,26.47
2017-10-17T09:35:47.667Z,26.53
2017-10-17T09:38:16.531Z,24.90
2017-10-17T09:40:44.617Z,24.93
2017-10-17T09:43:12.675Z,24.33
2017-10-17T09:45:40.787Z,24.03
2017-10-17T09:48:08.870Z,25.50
2017-10-17T09:50:36.950Z,23.53
2017-10-17T09:53:05.784Z,21.90
2017-10-17T09:55:33.887Z,22.97
2017-10-17T10:54:49.182Z,34.63
2017-10-17T10:57:17.303Z,34.07
2017-10-17T10:59:45.385Z,34.10
2017-10-17T11:02:14.249Z,32.80
2017-10-17T11:04:43.068Z,33.70
2017-10-17T11:07:11.159Z,33.33
2017-10-17T11:09:39.235Z,34.00
2017-10-17T11:12:07.327Z,32.10
2017-10-17T11:14:35.413Z,31.63
2017-10-17T11:17:03.539Z,31.70
2017-10-17T11:19:31.624Z,34.97
2017-10-17T11:21:59.708Z,33.43
2017-10-17T11:24:27.804Z,33.97
2017-10-17T11:26:55.875Z,34.57
2017-10-17T11:29:23.946Z,31.90
2017-10-17T11:31:52.799Z,32.87
2017-10-17T11:34:20.949Z,33.77
2017-10-17T11:36:49.811Z,32.50
2017-10-17T11:39:18.686Z,38.23
2017-10-17T11:41:58.561Z,32.90
2017-10-17T11:44:26.652Z,31.00
2017-10-17T11:46:54.739Z,30.97
2017-10-17T11:49:22.843Z,31.17
2017-10-17T11:51:50.927Z,41.13
2017-10-17T11:54:19.036Z,28.43
2017-10-17T11:56:47.143Z,30.07
2017-10-17T11:59:15.195Z,32.90
2017-10-17T12:01:43.301Z,32.67
2017-10-17T12:04:11.376Z,32.70
2017-10-17T12:06:39.786Z,31.00
2017-10-17T12:09:07.863Z,29.83
2017-10-17T12:11:35.976Z,31.40
2017-10-17T12:14:04.839Z,30.60
2017-10-17T12:16:32.949Z,29.93
2017-10-17T12:19:02.214Z,31.20
2017-10-17T12:21:31.303Z,30.80
2017-10-17T12:23:59.370Z,29.73
2017-10-17T12:26:27.447Z,30.23
2017-10-17T12:28:55.544Z,29.93
2017-10-17T12:31:24.404Z,33.43
2017-10-17T12:33:52.483Z,33.90
2017-10-17T12:36:20.561Z,37.97
2017-10-17T12:38:48.707Z,38.63
2017-10-17T12:41:16.764Z,37.00
2017-10-17T12:43:44.944Z,35.37
2017-10-17T12:46:13.000Z,35.20
2017-10-17T12:48:41.915Z,39.00
2017-10-17T12:51:10.008Z,35.03
2017-10-17T12:53:38.119Z,35.10
2017-10-17T12:56:06.219Z,33.57
2017-10-17T12:58:35.080Z,33.43
2017-10-17T13:01:03.151Z,32.67
2017-10-17T13:03:31.255Z,33.90
2017-10-17T13:05:59.359Z,34.37
2017-10-17T13:08:27.423Z,31.77
2017-10-17T13:10:55.498Z,37.03
2017-10-17T13:13:23.599Z,32.50
2017-10-17T13:15:51.710Z,33.80
2017-10-17T13:18:20.571Z,34.97
2017-10-17T13:20:49.422Z,32.57
2017-10-17T13:23:17.524Z,34.27
2017-10-17T13:25:46.370Z,33.03
2017-10-17T13:28:14.487Z,34.37
2017-10-17T13:30:44.091Z,34.03
2017-10-17T13:33:13.587Z,32.83
2017-10-17T13:35:41.716Z,31.13
2017-10-17T13:38:09.783Z,34.63
2017-10-17T13:40:37.882Z,33.63
2017-10-17T13:43:05.972Z,35.60
2017-10-17T13:45:35.550Z,33.63
2017-10-17T13:48:03.624Z,36.33
2017-10-17T13:50:31.739Z,34.93
2017-10-17T13:53:00.607Z,33.17
2017-10-17T13:55:28.688Z,33.33
2017-10-17T13:57:58.287Z,31.17
2017-10-17T14:00:26.355Z,35.93
2017-10-17T14:02:55.944Z,33.30
2017-10-17T14:05:24.009Z,37.50
2017-10-17T14:07:52.106Z,34.53
2017-10-17T14:10:20.160Z,36.73
2017-10-17T14:12:48.282Z,31.53
2017-10-17T14:15:16.452Z,32.70
2017-10-17T14:17:45.346Z,31.07
2017-10-17T14:20:13.435Z,32.33
2017-10-17T14:22:41.514Z,31.90
2017-10-17T14:25:09.600Z,32.73
2017-10-17T14:27:37.671Z,34.63
2017-10-17T14:30:05.940Z,37.20
2017-10-17T14:32:35.827Z,32.30
2017-10-17T14:40:54.005Z,33.03
2017-10-17T14:43:23.132Z,28.53
2017-10-17T14:45:56.449Z,31.37
2017-10-17T15:01:38.864Z,32.23
2017-10-17T15:04:11.131Z,30.70
2017-10-17T15:06:43.561Z,32.10
2017-10-17T15:09:17.273Z,32.07
2017-10-17T15:11:49.117Z,31.33
2017-10-17T15:14:33.753Z,33.30
2017-10-17T15:17:09.507Z,34.10
2017-10-17T15:19:55.785Z,34.53
2017-10-17T15:22:45.987Z,31.03
2017-10-17T15:25:16.328Z,34.10
2017-10-17T15:27:53.817Z,33.10
2017-10-17T15:30:29.493Z,33.50
2017-10-17T15:32:59.492Z,34.10
2017-10-17T15:35:31.564Z,36.20
2017-10-17T15:48:28.623Z,38.80
2017-10-17T15:50:59.528Z,35.40
2017-10-17T15:53:28.629Z,34.03
2017-10-17T15:55:56.940Z,36.83
2017-10-17T15:58:25.845Z,36.33
2017-10-17T16:00:54.109Z,36.37
2017-10-17T16:03:22.377Z,36.97
2017-10-17T16:05:52.827Z,36.47
2017-10-17T16:08:21.152Z,36.93
2017-10-17T16:10:50.348Z,37.53
2017-10-17T16:13:19.448Z,37.90
2017-10-17T16:15:48.554Z,36.97
2017-10-17T16:18:16.895Z,38.87
2017-10-17T16:20:45.272Z,36.27
2017-10-17T16:23:14.287Z,47.40
2017-10-17T16:25:43.624Z,37.10
2017-10-17T16:28:11.864Z,36.23
2017-10-17T16:30:42.124Z,38.50
2017-10-17T16:33:11.285Z,37.73
2017-10-17T16:35:39.560Z,37.03
2017-10-17T16:38:08.680Z,38.77
2017-10-17T16:40:38.364Z,37.37
2017-10-17T16:43:07.169Z,36.70
2017-10-17T16:45:35.583Z,38.97
2017-10-17T16:48:04.618Z,39.13
2017-10-17T16:50:34.581Z,40.70
2017-10-17T16:53:03.159Z,40.27
2017-10-17T16:55:31.277Z,35.47
2017-10-17T16:57:59.415Z,38.77
2017-10-17T17:00:27.764Z,38.97
2017-10-17T17:02:55.917Z,37.87
2017-10-17T17:05:23.995Z,39.60
2017-10-17T17:07:52.089Z,37.80
2017-10-17T17:10:20.164Z,40.30
2017-10-17T17:12:48.237Z,39.60
2017-10-17T17:15:16.356Z,50.13
2017-10-17T17:17:45.285Z,45.53
2017-10-17T17:20:13.370Z,44.17
2017-10-17T17:22:41.497Z,44.90
2017-10-17T17:25:09.573Z,42.17
2017-10-17T17:27:37.672Z,44.57
2017-10-17T17:30:05.846Z,48.87
2017-10-17T17:32:33.897Z,50.70
2017-10-17T17:35:01.996Z,44.37
2017-10-17T17:37:30.072Z,50.30
2017-10-17T17:39:58.184Z,51.43
2017-10-17T17:42:27.039Z,50.37
2017-10-17T17:44:55.131Z,48.77
2017-10-17T17:47:23.219Z,45.97
2017-10-17T17:49:52.504Z,50.80
2017-10-17T17:52:20.627Z,46.87
2017-10-17T17:54:48.714Z,53.60
2017-10-17T17:57:16.809Z,50.63
2017-10-17T17:59:45.686Z,47.77
2017-10-17T18:02:13.758Z,49.90
2017-10-17T18:04:42.651Z,47.63
2017-10-17T18:07:10.719Z,40.23
2017-10-17T18:09:38.816Z,44.27
2017-10-17T18:12:06.938Z,44.20
2017-10-17T18:14:35.041Z,46.50
2017-10-17T18:17:03.930Z,46.73
2017-10-17T18:19:32.006Z,42.40
2017-10-17T18:22:00.847Z,41.40
2017-10-17T18:24:28.962Z,40.53
2017-10-17T18:26:57.022Z,41.10
2017-10-17T18:29:25.114Z,42.97
2017-10-17T18:31:53.980Z,42.20
2017-10-17T18:34:22.085Z,42.40
2017-10-17T18:36:50.180Z,42.70
2017-10-17T18:39:18.259Z,43.00
2017-10-17T18:41:46.357Z,47.10
2017-10-17T18:44:14.495Z,44.40
2017-10-17T18:46:43.326Z,39.87
2017-10-17T18:49:11.436Z,39.63
2017-10-17T18:51:39.537Z,39.43
2017-10-17T18:54:08.363Z,45.03
2017-10-17T18:56:36.491Z,39.20
2017-10-17T18:59:05.347Z,39.87
2017-10-17T19:01:33.460Z,43.77
2017-10-17T19:04:01.536Z,42.33
2017-10-17T19:06:29.612Z,43.50
2017-10-17T19:08:57.689Z,42.07
2017-10-17T19:11:26.622Z,41.10
2017-10-17T19:13:54.676Z,46.93
2017-10-17T19:16:22.773Z,44.67
2017-10-17T19:18:51.627Z,43.13
2017-10-17T19:21:19.715Z,43.60
2017-10-17T19:23:47.790Z,40.43
2017-10-17T19:26:15.908Z,41.60
2017-10-17T19:28:43.999Z,41.90
2017-10-17T19:31:12.076Z,42.10
2017-10-17T19:33:40.229Z,45.50
2017-10-17T19:36:09.067Z,47.00
2017-10-17T19:38:37.185Z,44.77
2017-10-17T19:41:06.829Z,42.30
2017-10-17T19:43:34.979Z,40.20
2017-10-17T19:46:03.051Z,42.00
2017-10-17T19:48:31.906Z,40.07
2017-10-17T19:51:00.350Z,41.40
2017-10-17T19:53:28.453Z,41.47
2017-10-17T19:55:56.526Z,41.63
2017-10-17T19:58:24.625Z,42.37
2017-10-17T20:00:52.762Z,40.50
2017-10-17T20:03:20.869Z,40.30
2017-10-17T20:05:49.726Z,38.53
2017-10-17T20:08:17.786Z,45.00
2017-10-17T20:10:45.881Z,44.60
2017-10-17T20:13:13.951Z,41.87
2017-10-17T20:15:42.352Z,42.67
2017-10-17T20:18:10.392Z,42.73
2017-10-17T20:20:38.489Z,40.10
2017-10-17T20:23:06.587Z,41.80
2017-10-17T20:25:35.432Z,38.90
2017-10-17T20:28:03.524Z,40.70
2017-10-17T20:30:32.399Z,40.10
2017-10-17T20:33:00.720Z,42.50
2017-10-17T20:35:28.815Z,43.27
2017-10-17T20:37:56.883Z,42.20
2017-10-17T20:40:25.080Z,42.57
2017-10-17T20:42:53.152Z,41.80
2017-10-17T20:45:22.097Z,40.43
2017-10-17T20:47:50.189Z,41.00
2017-10-17T20:50:18.328Z,41.27
2017-10-17T20:52:47.154Z,40.70
2017-10-17T20:55:15.271Z,38.97
2017-10-17T20:57:43.330Z,39.17
2017-10-17T21:00:11.477Z,39.50
2017-10-17T21:02:39.531Z,39.60
2017-10-17T21:05:07.661Z,39.97
2017-10-17T21:20:36.544Z,36.90
2017-10-17T21:23:05.387Z,38.30
2017-10-17T21:25:33.485Z,37.27
2017-10-17T21:28:05.108Z,38.43
2017-10-17T21:30:33.929Z,37.37
2017-10-17T21:33:02.001Z,38.80
2017-10-17T21:35:30.095Z,42.37
2017-10-17T21:37:58.925Z,39.40
2017-10-17T21:40:27.008Z,36.00
2017-10-17T21:42:55.205Z,39.30
2017-10-17T21:45:24.247Z,36.97
2017-10-17T21:47:52.309Z,38.77
2017-10-17T21:50:21.166Z,41.33
2017-10-17T21:52:49.241Z,44.30
2017-10-17T21:55:17.343Z,39.47
2017-10-17T21:57:46.188Z,40.07
2017-10-17T22:00:14.299Z,39.30
2017-10-17T22:02:42.353Z,43.27
2017-10-17T22:05:10.467Z,37.17
2017-10-17T22:07:39.318Z,37.10
2017-10-17T22:10:07.431Z,38.93
2017-10-17T22:12:35.503Z,39.90
2017-10-17T22:15:03.598Z,38.23
2017-10-17T22:17:31.699Z,38.87
2017-10-17T22:20:00.556Z,36.30
2017-10-17T22:22:28.664Z,38.80
2017-10-17T22:24:56.775Z,38.70
2017-10-17T22:27:25.591Z,39.40
2017-10-17T22:29:53.688Z,40.70
2017-10-17T22:32:21.774Z,37.90
2017-10-17T22:34:49.843Z,37.80
2017-10-17T22:37:17.950Z,41.60
2017-10-17T22:39:46.023Z,37.80
2017-10-17T22:42:14.126Z,37.80
2017-10-17T22:44:42.181Z,35.40
2017-10-17T22:47:10.262Z,38.47
2017-10-17T22:49:38.334Z,37.10
2017-10-17T22:52:06.464Z,36.97
2017-10-17T22:54:35.298Z,38.37
2017-10-17T22:57:03.376Z,35.60
2017-10-17T22:59:31.446Z,35.83
2017-10-17T23:01:59.539Z,34.80
2017-10-17T23:04:28.412Z,34.17
2017-10-17T23:06:56.503Z,36.07
2017-10-17T23:09:25.352Z,37.67
2017-10-17T23:11:53.408Z,35.40
2017-10-17T23:14:21.503Z,35.87
2017-10-17T23:17:01.540Z,35.83
2017-10-17T23:19:41.736Z,34.07
2017-10-17T23:22:10.570Z,35.30
2017-10-17T23:24:38.680Z,33.80
2017-10-17T23:27:06.763Z,36.50
2017-10-17T23:29:34.865Z,37.30
2017-10-17T23:32:02.953Z,34.37
2017-10-17T23:34:31.040Z,31.87
2017-10-17T23:36:59.139Z,34.50
2017-10-17T23:39:27.203Z,34.70
2017-10-17T23:41:55.275Z,33.10
2017-10-17T23:44:23.334Z,31.73
2017-10-17T23:46:52.853Z,33.60
2017-10-17T23:49:21.952Z,32.50
2017-10-17T23:51:49.995Z,33.20
2017-10-17T23:54:18.114Z,33.60
2017-10-17T23:56:46.184Z,36.67
2017-10-17T23:59:14.257Z,34.67
